createdAt,value
2022-08-05T00:02:23.177Z,21.06
2022-08-05T00:04:55.516Z,21.05
2022-08-05T00:07:59.058Z,21.05
2022-08-05T00:10:12.341Z,21.02
2022-08-05T00:12:56.072Z,20.99
2022-08-05T00:15:55.069Z,20.98
2022-08-05T00:18:21.398Z,20.96
2022-08-05T00:20:50.998Z,20.94
2022-08-05T00:23:44.702Z,20.91
2022-08-05T00:26:07.735Z,20.89
2022-08-05T00:28:36.614Z,20.87
2022-08-05T00:31:05.669Z,20.86
2022-08-05T00:34:54.549Z,20.83
2022-08-05T00:37:13.139Z,20.80
2022-08-05T00:39:13.782Z,20.78
2022-08-05T00:41:55.162Z,20.76
2022-08-05T00:44:30.392Z,20.73
2022-08-05T00:47:02.171Z,20.70
2022-08-05T00:49:44.665Z,20.68
2022-08-05T00:52:28.277Z,20.65
2022-08-05T00:54:56.625Z,20.63
2022-08-05T00:57:25.451Z,20.60
2022-08-05T00:59:59.410Z,20.59
2022-08-05T01:02:26.913Z,20.56
2022-08-05T01:04:54.431Z,20.53
2022-08-05T01:07:22.022Z,20.49
2022-08-05T01:09:59.629Z,20.46
2022-08-05T01:12:29.714Z,20.43
2022-08-05T01:15:35.828Z,20.39
2022-08-05T01:18:03.671Z,20.34
2022-08-05T01:20:44.810Z,20.32
2022-08-05T01:23:44.634Z,20.29
2022-08-05T01:26:32.955Z,20.25
2022-08-05T01:29:06.288Z,20.22
2022-08-05T01:31:44.581Z,20.19
2022-08-05T01:34:18.165Z,20.15
2022-08-05T01:37:09.746Z,20.13
2022-08-05T01:39:59.064Z,20.10
2022-08-05T01:42:29.583Z,20.07
2022-08-05T01:45:02.049Z,20.03
2022-08-05T01:47:39.612Z,20.00
2022-08-05T01:50:29.650Z,19.96
2022-08-05T01:53:02.826Z,19.92
2022-08-05T01:55:36.200Z,19.90
2022-08-05T01:58:15.870Z,19.87
2022-08-05T02:00:49.354Z,19.85
2022-08-05T02:03:31.727Z,19.82
2022-08-05T02:06:24.075Z,19.80
2022-08-05T02:08:58.467Z,19.77
2022-08-05T02:11:37.538Z,19.75
2022-08-05T02:14:17.523Z,19.74
2022-08-05T02:16:54.634Z,19.74
2022-08-05T02:19:27.959Z,19.73
2022-08-05T02:22:09.919Z,19.72
2022-08-05T02:25:00.080Z,19.69
2022-08-05T02:27:58.467Z,19.68
2022-08-05T02:30:19.414Z,19.67
2022-08-05T02:32:50.611Z,19.65
2022-08-05T02:35:28.099Z,19.63
2022-08-05T02:38:02.828Z,19.63
2022-08-05T02:40:32.259Z,19.62
2022-08-05T02:43:01.086Z,19.61
2022-08-05T02:45:52.764Z,19.61
2022-08-05T02:48:19.167Z,19.59
2022-08-05T02:50:51.433Z,19.56
2022-08-05T02:53:21.960Z,19.53
2022-08-05T02:55:59.584Z,19.53
2022-08-05T02:58:30.295Z,19.54
2022-08-05T03:01:01.955Z,19.54
2022-08-05T03:03:33.861Z,19.55
2022-08-05T03:06:55.218Z,19.58
2022-08-05T03:08:53.400Z,19.58
2022-08-05T03:11:57.284Z,19.55
2022-08-05T03:14:13.300Z,19.54
2022-08-05T03:16:41.327Z,19.53
2022-08-05T03:19:17.270Z,19.51
2022-08-05T03:21:56.726Z,19.50
2022-08-05T03:24:30.485Z,19.50
2022-08-05T03:27:00.178Z,19.49
2022-08-05T03:29:45.855Z,19.48
2022-08-05T03:32:16.834Z,19.47
2022-08-05T03:34:51.110Z,19.46
2022-08-05T03:37:21.142Z,19.47
2022-08-05T03:40:01.436Z,19.49
2022-08-05T03:42:32.829Z,19.52
2022-08-05T03:45:22.057Z,19.55
2022-08-05T03:47:51.343Z,19.58
2022-08-05T03:50:20.381Z,19.61
2022-08-05T03:54:58.744Z,19.62
2022-08-05T03:56:10.514Z,19.67
2022-08-05T03:58:43.093Z,19.70
2022-08-05T04:01:15.034Z,19.71
2022-08-05T04:04:09.048Z,19.73
2022-08-05T04:06:35.289Z,19.76
2022-08-05T04:09:05.888Z,19.80
2022-08-05T04:11:47.713Z,19.84
2022-08-05T04:14:30.115Z,19.89
2022-08-05T04:17:03.101Z,19.94
2022-08-05T04:19:30.827Z,19.99
2022-08-05T04:22:09.469Z,20.04
2022-08-05T04:24:43.998Z,20.09
2022-08-05T04:27:15.412Z,20.12
2022-08-05T04:29:43.065Z,20.14
2022-08-05T04:32:10.576Z,20.17
2022-08-05T04:34:43.097Z,20.21
2022-08-05T04:37:11.207Z,20.26
2022-08-05T04:39:39.241Z,20.29
2022-08-05T04:42:08.068Z,20.34
2022-08-05T04:44:36.877Z,20.41
2022-08-05T04:47:08.989Z,20.47
2022-08-05T04:50:02.450Z,20.55
2022-08-05T04:52:28.395Z,20.64
2022-08-05T04:54:57.348Z,20.71
2022-08-05T04:57:29.219Z,20.79
2022-08-05T05:00:06.456Z,20.86
2022-08-05T05:02:41.923Z,20.94
2022-08-05T05:05:26.250Z,21.02
2022-08-05T05:08:02.634Z,21.11
2022-08-05T05:10:33.295Z,21.19
2022-08-05T05:13:04.262Z,21.27
2022-08-05T05:15:57.197Z,21.34
2022-08-05T05:18:28.783Z,21.44
2022-08-05T05:21:03.757Z,21.55
2022-08-05T05:23:39.154Z,21.63
2022-08-05T05:26:28.370Z,21.74
2022-08-05T05:29:00.490Z,21.83
2022-08-05T05:31:35.976Z,21.92
2022-08-05T05:34:01.945Z,22.00
2022-08-05T05:36:31.803Z,22.11
2022-08-05T05:38:59.637Z,22.20
2022-08-05T05:41:40.761Z,22.30
2022-08-05T05:44:35.545Z,22.41
2022-08-05T05:46:58.275Z,22.53
2022-08-05T05:49:26.229Z,22.63
2022-08-05T05:51:55.188Z,22.72
2022-08-05T05:54:22.758Z,22.84
2022-08-05T05:57:13.601Z,22.96
2022-08-05T05:59:48.790Z,23.06
2022-08-05T06:02:17.122Z,23.17
2022-08-05T06:05:01.353Z,23.29
2022-08-05T06:07:41.819Z,23.42
2022-08-05T06:10:10.742Z,23.54
2022-08-05T06:12:42.357Z,23.63
2022-08-05T06:15:16.497Z,23.74
2022-08-05T06:17:53.111Z,23.86
2022-08-05T06:20:21.712Z,23.93
2022-08-05T06:22:49.414Z,24.02
2022-08-05T06:25:25.068Z,24.12
2022-08-05T06:28:11.224Z,24.22
2022-08-05T06:30:48.837Z,24.32
2022-08-05T06:33:19.464Z,24.43
2022-08-05T06:36:07.803Z,24.53
2022-08-05T06:38:37.709Z,24.62
2022-08-05T06:41:08.188Z,24.72
2022-08-05T06:43:57.634Z,24.83
2022-08-05T06:46:29.914Z,24.93
2022-08-05T06:49:00.850Z,25.02
2022-08-05T06:51:30.780Z,25.12
2022-08-05T06:54:01.837Z,25.22
2022-08-05T06:56:33.849Z,25.31
2022-08-05T06:59:09.401Z,25.41
2022-08-05T07:01:40.789Z,25.50
2022-08-05T07:04:10.787Z,25.59
2022-08-05T07:06:41.752Z,25.69
2022-08-05T07:09:10.013Z,25.77
2022-08-05T07:11:39.947Z,25.85
2022-08-05T07:14:29.464Z,25.92
2022-08-05T07:17:59.876Z,25.99
2022-08-05T07:20:32.508Z,26.08
2022-08-05T07:22:38.460Z,26.16
2022-08-05T07:25:23.908Z,26.22
2022-08-05T07:28:03.879Z,26.30
2022-08-05T07:30:40.125Z,26.38
2022-08-05T07:33:15.911Z,26.45
2022-08-05T07:36:02.194Z,26.52
2022-08-05T07:38:43.231Z,26.58
2022-08-05T07:42:12.865Z,26.62
2022-08-05T07:44:14.513Z,26.69
2022-08-05T07:46:50.609Z,26.76
2022-08-05T07:49:20.126Z,26.82
2022-08-05T07:51:52.954Z,26.87
2022-08-05T07:54:30.943Z,26.96
2022-08-05T07:57:13.950Z,27.06
2022-08-05T07:59:49.186Z,27.16
2022-08-05T08:02:17.920Z,27.21
2022-08-05T08:04:48.492Z,27.26
2022-08-05T08:07:22.673Z,27.28
2022-08-05T08:09:54.949Z,27.34
2022-08-05T08:12:33.507Z,27.43
2022-08-05T08:15:13.990Z,27.53
2022-08-05T08:17:49.934Z,27.62
2022-08-05T08:20:59.778Z,27.72
2022-08-05T08:24:01.379Z,27.78
2022-08-05T08:26:02.833Z,27.82
2022-08-05T08:28:36.530Z,27.88
2022-08-05T08:31:10.075Z,28.01
2022-08-05T08:33:44.678Z,28.16
2022-08-05T08:36:37.449Z,28.31
2022-08-05T08:39:00.705Z,28.45
2022-08-05T08:41:52.612Z,28.56
2022-08-05T08:45:19.601Z,28.70
2022-08-05T08:47:46.912Z,28.79
2022-08-05T08:50:30.987Z,28.89
2022-08-05T08:53:02.003Z,29.00
2022-08-05T08:56:02.913Z,29.11
2022-08-05T08:58:36.901Z,29.25
2022-08-05T09:01:08.673Z,29.31
2022-08-05T09:03:54.421Z,29.37
2022-08-05T09:06:29.685Z,29.48
2022-08-05T09:09:00.550Z,29.52
2022-08-05T09:11:53.125Z,29.51
2022-08-05T09:14:58.277Z,29.52
2022-08-05T09:17:15.938Z,29.55
2022-08-05T09:20:04.893Z,29.63
2022-08-05T09:23:07.938Z,29.74
2022-08-05T09:26:03.543Z,29.86
2022-08-05T09:28:32.032Z,30.04
2022-08-05T09:31:22.408Z,30.22
2022-08-05T09:34:02.585Z,30.44
2022-08-05T09:36:54.989Z,30.49
2022-08-05T09:39:27.792Z,30.61
2022-08-05T09:42:11.390Z,30.69
2022-08-05T09:44:50.661Z,30.72
2022-08-05T09:47:21.919Z,30.80
2022-08-05T09:50:00.576Z,30.95
2022-08-05T09:52:32.068Z,31.12
2022-08-05T09:55:55.232Z,31.27
2022-08-05T09:57:54.752Z,31.41
2022-08-05T10:00:32.079Z,31.51
2022-08-05T10:03:09.915Z,31.70
2022-08-05T10:05:38.374Z,31.89
2022-08-05T10:08:34.677Z,32.11
2022-08-05T10:10:55.017Z,32.28
2022-08-05T10:13:45.779Z,32.38
2022-08-05T10:17:01.146Z,32.37
2022-08-05T10:20:02.714Z,32.51
2022-08-05T10:22:30.103Z,32.73
2022-08-05T10:25:02.506Z,32.98
2022-08-05T10:28:09.689Z,33.21
2022-08-05T10:31:19.922Z,33.54
2022-08-05T10:33:06.796Z,33.85
2022-08-05T10:35:40.632Z,33.94
2022-08-05T10:38:14.098Z,33.95
2022-08-05T10:40:57.828Z,34.02
2022-08-05T10:43:59.323Z,34.15
2022-08-05T10:46:54.376Z,34.33
2022-08-05T10:49:33.510Z,34.63
2022-08-05T10:52:49.537Z,34.82
2022-08-05T10:55:19.250Z,34.92
2022-08-05T10:57:46.743Z,34.98
2022-08-05T11:00:23.133Z,35.05
2022-08-05T11:03:23.461Z,35.28
2022-08-05T11:06:15.603Z,35.60
2022-08-05T11:09:18.611Z,35.55
2022-08-05T11:11:54.835Z,35.70
2022-08-05T11:17:59.100Z,35.95
2022-08-05T11:20:46.473Z,35.94
2022-08-05T11:23:33.657Z,36.14
2022-08-05T11:26:28.049Z,36.37
2022-08-05T11:28:58.717Z,36.66
2022-08-05T11:31:58.122Z,36.96
2022-08-05T11:34:51.350Z,37.26
2022-08-05T11:38:26.664Z,37.40
2022-08-05T11:41:34.591Z,37.38
2022-08-05T11:44:04.681Z,37.28
2022-08-05T11:46:58.188Z,37.56
2022-08-05T11:49:26.076Z,37.72
2022-08-05T11:51:53.927Z,37.83
2022-08-05T11:54:38.340Z,38.09
2022-08-05T11:57:24.966Z,38.08
2022-08-05T11:59:57.376Z,38.08
2022-08-05T12:02:30.190Z,38.12
2022-08-05T12:05:07.360Z,38.08
2022-08-05T12:08:08.027Z,38.23
2022-08-05T12:10:43.336Z,38.29
2022-08-05T12:13:17.431Z,38.39
2022-08-05T12:15:56.142Z,38.54
2022-08-05T12:18:40.591Z,38.63
2022-08-05T12:21:12.487Z,38.48
2022-08-05T12:23:42.914Z,38.37
2022-08-05T12:26:10.893Z,38.40
2022-08-05T12:28:38.698Z,38.69
2022-08-05T12:31:06.213Z,39.13
2022-08-05T12:33:36.430Z,39.45
2022-08-05T12:36:08.366Z,39.70
2022-08-05T12:38:40.401Z,39.88
2022-08-05T12:41:13.368Z,39.96
2022-08-05T12:44:00.299Z,40.28
2022-08-05T12:46:31.423Z,40.39
2022-08-05T12:49:08.412Z,40.58
2022-08-05T12:52:12.569Z,40.46
2022-08-05T12:54:41.193Z,40.64
2022-08-05T12:57:12.962Z,41.06
2022-08-05T13:01:58.099Z,41.31
2022-08-05T13:02:47.441Z,41.75
2022-08-05T13:05:24.702Z,42.00
2022-08-05T13:08:04.856Z,42.29
2022-08-05T13:10:50.382Z,42.62
2022-08-05T13:14:05.201Z,42.65
2022-08-05T13:16:15.350Z,42.61
2022-08-05T13:19:01.486Z,42.70
2022-08-05T13:21:38.046Z,42.63
2022-08-05T13:24:36.559Z,42.31
2022-08-05T13:27:04.688Z,42.42
2022-08-05T13:29:37.493Z,42.49
2022-08-05T13:32:05.757Z,42.51
2022-08-05T13:34:33.761Z,42.52
2022-08-05T13:37:05.584Z,42.64
2022-08-05T13:40:16.257Z,42.61
2022-08-05T13:42:23.540Z,42.54
2022-08-05T13:44:54.510Z,42.33
2022-08-05T13:47:36.040Z,42.17
2022-08-05T13:50:16.487Z,42.16
2022-08-05T13:52:44.399Z,42.48
2022-08-05T13:55:41.956Z,42.95
2022-08-05T13:58:08.059Z,43.39
2022-08-05T14:00:38.647Z,43.39
2022-08-05T14:03:11.719Z,43.03
2022-08-05T14:06:24.832Z,42.62
2022-08-05T14:08:28.019Z,41.97
2022-08-05T14:11:19.822Z,41.48
2022-08-05T14:13:48.216Z,41.37
2022-08-05T14:16:16.823Z,41.55
2022-08-05T14:18:44.805Z,41.56
2022-08-05T14:22:07.945Z,41.57
2022-08-05T14:24:00.002Z,41.42
2022-08-05T14:26:36.879Z,41.03
2022-08-05T14:29:06.453Z,40.67
2022-08-05T14:31:54.494Z,40.50
2022-08-05T14:34:35.222Z,40.58
2022-08-05T14:37:05.190Z,40.78
2022-08-05T14:39:49.452Z,40.74
2022-08-05T14:42:20.765Z,40.73
2022-08-05T14:44:49.594Z,41.30
2022-08-05T14:48:03.602Z,41.88
2022-08-05T14:50:17.181Z,42.45
2022-08-05T14:52:53.614Z,43.08
2022-08-05T14:55:38.356Z,43.67
2022-08-05T14:58:10.827Z,44.29
2022-08-05T15:00:59.104Z,44.85
2022-08-05T15:03:33.582Z,45.85
2022-08-05T15:06:07.999Z,46.51
2022-08-05T15:08:57.914Z,46.87
2022-08-05T15:11:51.844Z,46.97
2022-08-05T15:14:33.367Z,47.16
2022-08-05T15:17:05.287Z,47.27
2022-08-05T15:19:37.638Z,47.62
2022-08-05T15:22:08.656Z,47.70
2022-08-05T15:24:36.563Z,48.04
2022-08-05T15:27:09.168Z,48.11
2022-08-05T15:29:42.134Z,47.97
2022-08-05T15:32:09.911Z,47.72
2022-08-05T15:34:37.461Z,47.73
2022-08-05T15:37:06.821Z,47.65
2022-08-05T15:41:00.503Z,47.29
2022-08-05T15:42:55.592Z,47.13
2022-08-05T15:45:18.684Z,47.15
2022-08-05T15:47:50.626Z,47.28
2022-08-05T15:50:21.907Z,47.41
2022-08-05T15:52:55.292Z,47.56
2022-08-05T15:55:24.561Z,47.49
2022-08-05T15:57:52.690Z,47.46
2022-08-05T16:00:25.940Z,47.47
2022-08-05T16:03:00.421Z,47.49
2022-08-05T16:05:28.629Z,47.57
2022-08-05T16:07:57.217Z,47.75
2022-08-05T16:10:25.566Z,47.88
2022-08-05T16:12:55.974Z,47.87
2022-08-05T16:15:23.999Z,47.94
2022-08-05T16:17:59.843Z,48.16
2022-08-05T16:20:27.992Z,48.26
2022-08-05T16:22:55.813Z,48.32
2022-08-05T16:25:32.235Z,48.29
2022-08-05T16:28:09.744Z,48.13
2022-08-05T16:30:38.060Z,48.03
2022-08-05T16:33:06.354Z,48.02
2022-08-05T16:35:41.954Z,48.03
2022-08-05T16:38:24.095Z,47.97
2022-08-05T16:41:00.043Z,47.41
2022-08-05T16:43:34.108Z,46.76
2022-08-05T16:46:12.891Z,46.68
2022-08-05T16:48:52.143Z,46.47
2022-08-05T16:51:20.626Z,46.35
2022-08-05T16:54:02.907Z,46.36
2022-08-05T16:56:35.068Z,46.36
2022-08-05T16:59:10.760Z,46.33
2022-08-05T17:01:53.506Z,46.24
2022-08-05T17:04:27.759Z,46.21
2022-08-05T17:07:03.534Z,46.08
2022-08-05T17:09:58.351Z,45.86
2022-08-05T17:12:51.514Z,45.62
2022-08-05T17:15:15.698Z,45.35
2022-08-05T17:17:55.257Z,44.99
2022-08-05T17:20:23.082Z,44.59
2022-08-05T17:22:55.688Z,44.22
2022-08-05T17:25:39.499Z,43.68
2022-08-05T17:28:09.819Z,42.77
2022-08-05T17:30:50.217Z,41.76
2022-08-05T17:33:20.393Z,40.66
2022-08-05T17:36:07.947Z,39.66
2022-08-05T17:38:35.543Z,38.65
2022-08-05T17:41:03.084Z,37.85
2022-08-05T17:43:47.304Z,37.12
2022-08-05T17:46:20.181Z,36.36
2022-08-05T17:48:48.858Z,35.70
2022-08-05T17:51:21.761Z,35.15
2022-08-05T17:53:50.915Z,34.59
2022-08-05T17:56:22.780Z,34.13
2022-08-05T17:58:51.157Z,33.68
2022-08-05T18:01:20.061Z,33.26
2022-08-05T18:03:58.347Z,32.88
2022-08-05T18:06:31.489Z,32.46
2022-08-05T18:08:59.937Z,32.12
2022-08-05T18:11:33.468Z,31.80
2022-08-05T18:14:13.482Z,31.53
2022-08-05T18:16:51.820Z,31.23
2022-08-05T18:19:22.638Z,30.96
2022-08-05T18:22:09.702Z,30.71
2022-08-05T18:24:39.508Z,30.45
2022-08-05T18:27:16.596Z,30.23
2022-08-05T18:29:53.666Z,29.99
2022-08-05T18:32:28.214Z,29.78
2022-08-05T18:34:57.799Z,29.56
2022-08-05T18:37:34.803Z,29.37
2022-08-05T18:41:50.073Z,29.18
2022-08-05T18:42:58.485Z,29.01
2022-08-05T18:45:26.814Z,28.84
2022-08-05T18:48:11.296Z,28.67
2022-08-05T18:50:55.565Z,28.51
2022-08-05T18:53:29.390Z,28.34
2022-08-05T18:56:02.344Z,28.20
2022-08-05T18:58:39.906Z,28.08
2022-08-05T19:01:10.609Z,27.95
2022-08-05T19:03:53.036Z,27.84
2022-08-05T19:06:34.367Z,27.73
2022-08-05T19:09:11.547Z,27.61
2022-08-05T19:11:59.916Z,27.51
2022-08-05T19:14:37.893Z,27.40
2022-08-05T19:17:14.244Z,27.28
2022-08-05T19:19:46.869Z,27.17
2022-08-05T19:22:17.052Z,27.07
2022-08-05T19:24:56.027Z,26.97
2022-08-05T19:27:27.954Z,26.88
2022-08-05T19:29:58.560Z,26.81
2022-08-05T19:32:27.790Z,26.73
2022-08-05T19:34:58.919Z,26.64
2022-08-05T19:37:47.413Z,26.55
2022-08-05T19:40:24.200Z,26.45
2022-08-05T19:43:00.952Z,26.36
2022-08-05T19:45:36.740Z,26.28
2022-08-05T19:48:06.204Z,26.21
2022-08-05T19:50:35.058Z,26.14
2022-08-05T19:53:10.359Z,26.10
2022-08-05T19:56:15.439Z,26.06
2022-08-05T19:58:28.391Z,26.00
2022-08-05T20:00:56.862Z,25.96
2022-08-05T20:03:26.118Z,25.92
2022-08-05T20:05:56.600Z,25.88
2022-08-05T20:08:25.363Z,25.83
2022-08-05T20:10:53.503Z,25.80
2022-08-05T20:13:29.988Z,25.75
2022-08-05T20:16:09.994Z,25.72
2022-08-05T20:18:38.347Z,25.70
2022-08-05T20:21:07.104Z,25.66
2022-08-05T20:23:39.293Z,25.63
2022-08-05T20:26:19.883Z,25.59
2022-08-05T20:28:50.375Z,25.54
2022-08-05T20:31:36.935Z,25.51
2022-08-05T20:34:11.576Z,25.49
2022-08-05T20:36:43.223Z,25.50
2022-08-05T20:39:16.131Z,25.51
2022-08-05T20:41:46.569Z,25.53
2022-08-05T20:44:29.707Z,25.54
2022-08-05T20:47:00.758Z,25.55
2022-08-05T20:49:28.897Z,25.54
2022-08-05T20:51:57.835Z,25.53
2022-08-05T20:54:55.028Z,25.54
2022-08-05T20:57:42.145Z,25.56
2022-08-05T21:00:20.320Z,25.57
2022-08-05T21:02:56.978Z,25.59
2022-08-05T21:05:24.616Z,25.60
2022-08-05T21:07:52.530Z,25.60
2022-08-05T21:10:21.591Z,25.61
2022-08-05T21:13:08.935Z,25.60
2022-08-05T21:15:37.387Z,25.59
2022-08-05T21:18:04.908Z,25.59
2022-08-05T21:20:32.889Z,25.60
2022-08-05T21:23:01.257Z,25.59
2022-08-05T21:25:34.041Z,25.58
2022-08-05T21:28:03.008Z,25.54
2022-08-05T21:30:31.763Z,25.41
2022-08-05T21:33:01.726Z,25.25
2022-08-05T21:35:55.779Z,25.07
2022-08-05T21:38:19.039Z,24.86
2022-08-05T21:40:46.724Z,24.72
2022-08-05T21:43:24.187Z,24.63
2022-08-05T21:45:57.415Z,24.59
2022-08-05T21:48:28.735Z,24.57
2022-08-05T21:50:56.441Z,24.58
2022-08-05T21:53:27.623Z,24.60
2022-08-05T21:56:05.649Z,24.62
2022-08-05T21:58:42.316Z,24.64
2022-08-05T22:01:24.748Z,24.66
2022-08-05T22:03:53.758Z,24.66
2022-08-05T22:06:35.218Z,24.65
2022-08-05T22:09:13.971Z,24.63
2022-08-05T22:11:47.108Z,24.60
2022-08-05T22:14:32.696Z,24.54
2022-08-05T22:17:05.388Z,24.45
2022-08-05T22:19:57.265Z,24.39
2022-08-05T22:22:28.049Z,24.33
2022-08-05T22:25:17.682Z,24.30
2022-08-05T22:28:08.942Z,24.26
2022-08-05T22:30:55.834Z,24.25
2022-08-05T22:33:57.195Z,24.25
2022-08-05T22:36:14.265Z,24.26
2022-08-05T22:38:48.163Z,24.26
2022-08-05T22:42:05.364Z,24.30
2022-08-05T22:44:07.786Z,24.33
2022-08-05T22:46:39.443Z,24.35
2022-08-05T22:49:12.096Z,24.38
2022-08-05T22:52:05.130Z,24.40
2022-08-05T22:54:28.275Z,24.40
2022-08-05T22:56:56.087Z,24.38
2022-08-05T22:59:46.387Z,24.37
2022-08-05T23:02:13.524Z,24.39
2022-08-05T23:04:51.531Z,24.38
2022-08-05T23:07:21.882Z,24.36
2022-08-05T23:09:58.428Z,24.34
2022-08-05T23:12:33.346Z,24.32
2022-08-05T23:15:08.925Z,24.30
2022-08-05T23:17:37.959Z,24.27
2022-08-05T23:20:25.119Z,24.25
2022-08-05T23:22:55.855Z,24.23
2022-08-05T23:25:53.250Z,24.21
2022-08-05T23:28:12.296Z,24.19
2022-08-05T23:30:43.610Z,24.17
2022-08-05T23:33:16.513Z,24.17
2022-08-05T23:35:56.178Z,24.13
2022-08-05T23:38:25.934Z,24.06
2022-08-05T23:40:53.776Z,24.01
2022-08-05T23:43:25.731Z,23.96
2022-08-05T23:46:19.771Z,23.92
2022-08-05T23:49:01.076Z,23.90
2022-08-05T23:51:53.576Z,23.87
2022-08-05T23:54:30.018Z,23.83
2022-08-05T23:57:03.871Z,23.78
2022-08-05T23:59:37.561Z,23.75
